createdAt,value
2018-03-02T00:01:30.341Z,18.63
2018-03-02T00:03:57.914Z,19.00
2018-03-02T00:06:25.542Z,17.00
2018-03-02T00:08:53.101Z,18.10
2018-03-02T00:11:20.632Z,17.10
2018-03-02T00:13:48.186Z,17.53
2018-03-02T00:16:15.704Z,18.17
2018-03-02T00:18:43.277Z,17.83
2018-03-02T00:21:10.872Z,20.77
2018-03-02T00:23:38.706Z,19.20
2018-03-02T00:26:06.312Z,17.87
2018-03-02T00:28:33.929Z,18.83
2018-03-02T00:31:01.788Z,17.30
2018-03-02T00:33:29.360Z,18.10
2018-03-02T00:35:56.879Z,18.60
2018-03-02T00:38:24.435Z,17.63
2018-03-02T00:40:51.967Z,18.83
2018-03-02T00:43:19.544Z,17.33
2018-03-02T00:45:47.091Z,18.00
2018-03-02T00:48:14.655Z,17.33
2018-03-02T00:50:42.366Z,17.40
2018-03-02T00:53:09.913Z,19.10
2018-03-02T00:55:37.452Z,18.37
2018-03-02T00:58:05.023Z,17.97
2018-03-02T01:00:32.566Z,18.30
2018-03-02T01:03:00.087Z,19.57
2018-03-02T01:05:27.647Z,19.07
2018-03-02T01:07:55.406Z,18.20
2018-03-02T01:10:22.945Z,17.87
2018-03-02T01:12:50.468Z,19.10
2018-03-02T01:15:18.026Z,18.43
2018-03-02T01:17:45.576Z,18.57
2018-03-02T01:20:13.128Z,19.23
2018-03-02T01:22:40.643Z,17.87
2018-03-02T01:25:08.199Z,16.83
2018-03-02T01:27:35.725Z,18.00
2018-03-02T01:30:03.358Z,18.37
2018-03-02T01:32:31.220Z,20.07
2018-03-02T01:34:58.774Z,19.60
2018-03-02T01:37:26.327Z,19.53
2018-03-02T01:39:53.897Z,18.13
2018-03-02T01:42:21.414Z,19.83
2018-03-02T01:44:49.321Z,20.40
2018-03-02T01:47:16.909Z,18.70
2018-03-02T01:49:44.470Z,20.90
2018-03-02T01:52:12.012Z,19.00
2018-03-02T01:54:39.562Z,18.50
2018-03-02T01:57:07.333Z,20.07
2018-03-02T01:59:35.010Z,20.60
2018-03-02T02:02:02.599Z,19.83
2018-03-02T02:04:30.165Z,19.77
2018-03-02T02:06:57.687Z,19.50
2018-03-02T02:09:25.312Z,19.20
2018-03-02T02:11:52.867Z,19.50
2018-03-02T02:14:20.413Z,21.30
2018-03-02T02:16:47.933Z,18.97
2018-03-02T02:19:15.808Z,20.17
2018-03-02T02:21:43.333Z,19.17
2018-03-02T02:24:10.869Z,18.97
2018-03-02T02:26:38.678Z,17.43
2018-03-02T02:29:06.239Z,18.37
2018-03-02T02:31:33.824Z,19.73
2018-03-02T02:34:01.415Z,19.37
2018-03-02T02:36:28.951Z,20.53
2018-03-02T02:38:56.564Z,18.20
2018-03-02T02:41:24.452Z,16.70
2018-03-02T02:43:51.981Z,18.70
2018-03-02T02:46:19.523Z,17.93
2018-03-02T02:48:47.100Z,16.80
2018-03-02T02:51:14.635Z,17.40
2018-03-02T02:53:42.198Z,19.07
2018-03-02T02:56:09.765Z,19.13
2018-03-02T02:58:37.289Z,19.20
2018-03-02T03:01:04.812Z,17.73
2018-03-02T03:03:32.423Z,20.10
2018-03-02T03:05:59.929Z,20.20
2018-03-02T03:08:27.725Z,18.83
2018-03-02T03:10:55.319Z,19.90
2018-03-02T03:13:22.846Z,19.30
2018-03-02T03:15:50.378Z,20.10
2018-03-02T03:18:17.951Z,19.47
2018-03-02T03:20:45.556Z,18.13
2018-03-02T03:23:13.078Z,20.80
2018-03-02T03:25:40.655Z,19.60
2018-03-02T03:28:08.192Z,19.97
2018-03-02T03:30:35.793Z,18.53
2018-03-02T03:33:03.383Z,19.50
2018-03-02T03:35:30.950Z,18.70
2018-03-02T03:37:58.476Z,20.03
2018-03-02T03:40:26.030Z,17.90
2018-03-02T03:42:53.547Z,18.90
2018-03-02T03:45:21.075Z,19.43
2018-03-02T03:47:48.634Z,19.10
2018-03-02T03:50:16.183Z,20.13
2018-03-02T03:52:43.774Z,18.63
2018-03-02T03:55:11.332Z,18.63
2018-03-02T03:57:38.884Z,19.00
2018-03-02T04:00:07.114Z,19.07
2018-03-02T04:02:34.984Z,18.60
2018-03-02T04:05:02.517Z,19.50
2018-03-02T04:07:30.306Z,19.47
2018-03-02T04:09:57.872Z,19.73
2018-03-02T04:12:25.402Z,19.57
2018-03-02T04:14:52.924Z,17.77
2018-03-02T04:17:20.493Z,18.10
2018-03-02T04:19:48.008Z,17.50
2018-03-02T04:22:15.559Z,19.20
2018-03-02T04:24:43.119Z,19.70
2018-03-02T04:27:10.646Z,19.37
2018-03-02T04:29:38.230Z,19.90
2018-03-02T04:32:06.008Z,19.80
2018-03-02T04:34:33.790Z,19.20
2018-03-02T04:37:01.314Z,19.83
2018-03-02T04:39:28.849Z,18.00
2018-03-02T04:41:56.370Z,19.93
2018-03-02T04:44:24.232Z,20.03
2018-03-02T04:46:51.797Z,20.53
2018-03-02T04:49:19.335Z,20.67
2018-03-02T04:51:46.859Z,21.00
2018-03-02T04:54:14.417Z,19.40
2018-03-02T04:56:41.934Z,20.97
2018-03-02T04:59:09.796Z,18.20
2018-03-02T05:01:37.357Z,21.00
2018-03-02T05:04:05.117Z,19.70
2018-03-02T05:06:32.663Z,18.23
2018-03-02T05:09:00.980Z,18.70
2018-03-02T05:11:28.506Z,19.37
2018-03-02T05:13:56.164Z,21.60
2018-03-02T05:16:23.739Z,19.13
2018-03-02T05:18:51.263Z,19.20
2018-03-02T05:21:18.789Z,19.17
2018-03-02T05:23:46.349Z,19.17
2018-03-02T05:26:13.876Z,20.63
2018-03-02T05:28:41.429Z,19.27
2018-03-02T05:31:09.031Z,20.80
2018-03-02T05:33:36.626Z,20.53
2018-03-02T05:36:04.245Z,20.17
2018-03-02T05:38:32.095Z,19.60
2018-03-02T05:40:59.648Z,18.63
2018-03-02T05:43:27.166Z,20.50
2018-03-02T05:45:54.735Z,18.43
2018-03-02T05:48:22.286Z,20.00
2018-03-02T05:50:49.840Z,20.00
2018-03-02T05:53:17.401Z,19.97
2018-03-02T05:55:44.929Z,17.07
2018-03-02T05:58:12.459Z,20.77
2018-03-02T06:00:40.066Z,19.40
2018-03-02T06:03:07.581Z,20.30
2018-03-02T06:05:35.115Z,19.40
2018-03-02T06:08:02.682Z,19.37
2018-03-02T06:10:30.488Z,18.77
2018-03-02T06:12:58.083Z,20.87
2018-03-02T06:15:25.743Z,21.60
2018-03-02T06:17:53.266Z,20.03
2018-03-02T06:20:20.803Z,21.00
2018-03-02T06:22:48.353Z,19.20
2018-03-02T06:25:15.899Z,19.40
2018-03-02T06:27:43.471Z,20.10
2018-03-02T06:30:11.060Z,20.60
2018-03-02T06:32:38.626Z,20.80
2018-03-02T06:35:06.209Z,19.40
2018-03-02T06:37:33.782Z,20.10
2018-03-02T06:40:01.333Z,20.10
2018-03-02T06:42:29.194Z,20.20
2018-03-02T06:44:56.756Z,21.00
2018-03-02T06:47:24.353Z,20.97
2018-03-02T06:49:51.897Z,21.00
2018-03-02T06:52:19.439Z,20.27
2018-03-02T06:54:46.981Z,21.97
2018-03-02T06:57:14.524Z,19.63
2018-03-02T06:59:42.088Z,20.60
2018-03-02T07:02:09.667Z,21.90
2018-03-02T07:04:37.195Z,21.80
2018-03-02T07:07:04.787Z,21.53
2018-03-02T07:09:32.327Z,20.10
2018-03-02T07:12:00.190Z,20.70
2018-03-02T07:14:27.987Z,21.70
2018-03-02T07:16:55.763Z,20.17
2018-03-02T07:19:23.359Z,21.00
2018-03-02T07:21:50.977Z,20.80
2018-03-02T07:24:18.515Z,21.27
2018-03-02T07:26:46.028Z,20.60
2018-03-02T07:29:13.579Z,19.57
2018-03-02T07:31:41.104Z,21.17
2018-03-02T07:34:08.653Z,22.70
2018-03-02T07:36:36.217Z,20.40
2018-03-02T07:39:03.811Z,19.80
2018-03-02T07:41:31.388Z,21.47
2018-03-02T07:43:59.002Z,22.17
2018-03-02T07:46:26.549Z,23.23
2018-03-02T07:48:54.107Z,19.33
2018-03-02T07:51:21.690Z,21.00
2018-03-02T07:53:49.253Z,21.07
2018-03-02T07:56:16.826Z,20.40
2018-03-02T07:58:44.567Z,21.67
2018-03-02T08:01:12.731Z,21.40
2018-03-02T08:03:40.529Z,22.50
2018-03-02T08:06:08.173Z,20.83
2018-03-02T08:08:35.778Z,22.33
2018-03-02T08:11:03.634Z,22.50
2018-03-02T08:13:31.273Z,23.70
2018-03-02T08:15:58.858Z,24.47
2018-03-02T08:18:26.738Z,22.57
2018-03-02T08:20:54.390Z,20.77
2018-03-02T08:23:21.949Z,21.43
2018-03-02T08:25:49.844Z,22.67
2018-03-02T08:28:17.683Z,22.67
2018-03-02T08:30:45.256Z,23.00
2018-03-02T08:33:13.110Z,22.50
2018-03-02T08:35:40.705Z,21.90
2018-03-02T08:38:08.240Z,26.23
2018-03-02T08:40:35.768Z,23.33
2018-03-02T08:43:03.390Z,24.10
2018-03-02T08:45:30.940Z,21.73
2018-03-02T08:47:58.547Z,21.67
2018-03-02T08:50:26.284Z,22.17
2018-03-02T08:52:53.824Z,22.80
2018-03-02T08:55:21.608Z,23.67
2018-03-02T08:57:49.379Z,24.27
2018-03-02T09:00:17.231Z,23.90
2018-03-02T09:02:44.823Z,21.53
2018-03-02T09:05:12.412Z,21.63
2018-03-02T09:07:39.961Z,25.27
2018-03-02T09:10:07.570Z,24.33
2018-03-02T09:12:35.426Z,23.53
2018-03-02T09:15:03.060Z,25.93
2018-03-02T09:17:30.610Z,24.00
2018-03-02T09:19:58.231Z,23.60
2018-03-02T09:22:25.799Z,25.27
2018-03-02T09:24:53.446Z,21.00
2018-03-02T09:27:21.198Z,23.40
2018-03-02T09:29:49.068Z,24.50
2018-03-02T09:32:16.720Z,24.80
2018-03-02T09:34:44.284Z,23.50
2018-03-02T09:37:11.845Z,24.37
2018-03-02T09:39:39.766Z,26.27
2018-03-02T09:42:07.369Z,26.37
2018-03-02T09:44:34.986Z,27.33
2018-03-02T09:47:02.523Z,25.50
2018-03-02T09:49:30.090Z,24.00
2018-03-02T09:51:57.630Z,25.63
2018-03-02T09:54:25.182Z,24.67
2018-03-02T09:56:52.745Z,25.70
2018-03-02T09:59:20.660Z,25.23
2018-03-02T10:01:48.148Z,26.53
2018-03-02T10:04:15.735Z,24.13
2018-03-02T10:06:43.305Z,26.00
2018-03-02T10:09:12.296Z,24.80
2018-03-02T10:11:39.923Z,27.40
2018-03-02T10:14:07.555Z,26.10
2018-03-02T10:16:35.365Z,25.37
2018-03-02T10:19:03.242Z,25.80
2018-03-02T10:21:30.870Z,25.40
2018-03-02T10:23:58.448Z,25.43
2018-03-02T10:26:26.407Z,25.70
2018-03-02T10:28:54.057Z,25.67
2018-03-02T10:31:21.612Z,24.93
2018-03-02T10:33:49.231Z,25.00
2018-03-02T10:36:16.820Z,25.33
2018-03-02T10:38:44.362Z,23.70
2018-03-02T10:41:12.211Z,24.70
2018-03-02T10:43:39.890Z,24.40
2018-03-02T10:46:07.452Z,25.20
2018-03-02T10:48:35.021Z,27.40
2018-03-02T10:51:02.623Z,27.50
2018-03-02T10:53:30.158Z,27.33
2018-03-02T10:55:57.932Z,27.43
2018-03-02T10:58:25.630Z,27.43
2018-03-02T11:00:53.252Z,26.20
2018-03-02T11:03:22.792Z,26.40
2018-03-02T11:05:50.428Z,25.90
2018-03-02T11:08:17.944Z,27.13
2018-03-02T11:10:45.748Z,25.43
2018-03-02T11:13:15.063Z,24.07
2018-03-02T11:15:42.643Z,25.50
2018-03-02T11:18:10.264Z,24.33
2018-03-02T11:20:37.794Z,24.37
2018-03-02T11:23:05.584Z,25.00
2018-03-02T11:25:33.202Z,24.63
2018-03-02T11:28:00.970Z,24.93
2018-03-02T11:30:28.502Z,25.30
2018-03-02T11:32:56.073Z,25.67
2018-03-02T11:35:23.722Z,25.73
2018-03-02T11:37:51.247Z,27.70
2018-03-02T11:40:18.844Z,26.47
2018-03-02T11:42:46.373Z,26.33
2018-03-02T11:45:14.016Z,26.50
2018-03-02T11:47:41.620Z,25.43
2018-03-02T11:50:09.245Z,25.67
2018-03-02T11:52:37.095Z,27.70
2018-03-02T11:55:04.680Z,27.93
2018-03-02T11:57:32.203Z,25.43
2018-03-02T11:59:59.771Z,25.80
2018-03-02T12:02:27.375Z,25.90
2018-03-02T12:04:54.904Z,26.63
2018-03-02T12:07:22.414Z,27.47
2018-03-02T12:09:49.962Z,28.90
2018-03-02T12:12:17.494Z,28.40
2018-03-02T12:14:44.997Z,29.40
2018-03-02T12:17:12.902Z,27.80
2018-03-02T12:19:40.422Z,29.83
2018-03-02T12:22:08.142Z,29.50
2018-03-02T12:24:35.793Z,29.30
2018-03-02T12:27:03.342Z,28.40
2018-03-02T12:29:30.912Z,27.87
2018-03-02T12:31:58.990Z,27.33
2018-03-02T12:34:26.570Z,25.50
2018-03-02T12:36:54.155Z,27.50
2018-03-02T12:39:21.734Z,26.83
2018-03-02T12:41:49.302Z,26.97
2018-03-02T12:44:16.854Z,28.80
2018-03-02T12:46:44.450Z,26.80
2018-03-02T12:49:12.077Z,27.20
2018-03-02T12:51:39.605Z,27.30
2018-03-02T12:54:07.164Z,28.23
2018-03-02T12:56:34.703Z,29.70
2018-03-02T12:59:02.234Z,30.30
2018-03-02T13:01:29.801Z,28.93
2018-03-02T13:03:57.392Z,32.20
2018-03-02T13:06:24.922Z,27.80
2018-03-02T13:08:52.506Z,30.07
2018-03-02T13:11:20.126Z,31.40
2018-03-02T13:13:47.883Z,31.33
2018-03-02T13:16:15.443Z,31.57
2018-03-02T13:18:43.351Z,30.10
2018-03-02T13:21:10.883Z,30.30
2018-03-02T13:23:38.527Z,33.20
2018-03-02T13:26:06.447Z,30.60
2018-03-02T13:28:45.795Z,32.47
2018-03-02T13:31:13.348Z,29.77
2018-03-02T13:33:52.676Z,32.10
2018-03-02T13:36:20.527Z,32.17
2018-03-02T13:38:48.078Z,33.50
2018-03-02T13:44:19.656Z,29.87
2018-03-02T13:46:47.257Z,30.47
2018-03-02T13:49:26.748Z,29.93
2018-03-02T13:51:54.416Z,31.37
2018-03-02T13:54:21.972Z,28.33
2018-03-02T13:59:51.815Z,28.07
2018-03-02T14:02:31.411Z,29.50
2018-03-02T14:05:01.027Z,27.73
2018-03-02T14:07:28.645Z,24.63
2018-03-02T14:09:56.293Z,25.37
2018-03-02T14:12:23.891Z,25.97
2018-03-02T14:14:51.562Z,24.37
2018-03-02T14:17:19.204Z,24.93
2018-03-02T14:19:46.742Z,25.23
2018-03-02T14:22:14.334Z,25.20
2018-03-02T14:24:41.964Z,26.10
2018-03-02T14:27:09.512Z,26.00
2018-03-02T14:29:37.446Z,25.87
2018-03-02T14:32:05.017Z,26.10
2018-03-02T14:34:32.655Z,26.23
2018-03-02T14:37:00.346Z,25.17
2018-03-02T14:39:28.222Z,25.90
2018-03-02T14:41:55.898Z,24.90
2018-03-02T14:44:23.954Z,24.73
2018-03-02T14:46:52.126Z,26.63
2018-03-02T14:49:20.174Z,26.20
2018-03-02T14:51:50.974Z,26.87
2018-03-02T14:54:18.722Z,27.63
2018-03-02T14:56:46.465Z,26.70
2018-03-02T14:59:14.220Z,27.77
2018-03-02T15:01:44.209Z,28.90
2018-03-02T15:04:14.719Z,24.63
2018-03-02T15:06:42.838Z,27.07
2018-03-02T15:09:11.208Z,27.30
2018-03-02T15:11:39.647Z,24.83
2018-03-02T15:14:10.347Z,27.03
2018-03-02T15:16:40.755Z,25.43
2018-03-02T15:19:23.751Z,24.83
2018-03-02T15:21:54.198Z,25.07
2018-03-02T15:24:26.273Z,26.20
2018-03-02T15:26:55.289Z,23.80
2018-03-02T15:29:23.858Z,24.33
2018-03-02T15:31:53.713Z,23.43
2018-03-02T15:34:23.139Z,24.77
2018-03-02T15:36:51.178Z,24.23
2018-03-02T15:39:19.296Z,22.90
2018-03-02T15:41:47.361Z,22.47
2018-03-02T15:44:15.395Z,25.10
2018-03-02T15:49:21.861Z,24.57
2018-03-02T15:51:52.935Z,23.83
2018-03-02T15:54:26.857Z,21.90
2018-03-02T15:56:57.141Z,20.47
2018-03-02T15:59:25.233Z,21.20
2018-03-02T16:01:53.304Z,23.23
2018-03-02T16:04:22.404Z,21.20
2018-03-02T16:06:50.574Z,23.30
2018-03-02T16:09:18.724Z,22.10
2018-03-02T16:11:47.001Z,23.10
2018-03-02T16:14:15.084Z,21.53
2018-03-02T16:16:42.950Z,21.40
2018-03-02T16:19:11.553Z,22.23
2018-03-02T16:21:39.450Z,22.30
2018-03-02T16:24:07.392Z,21.50
2018-03-02T16:26:35.391Z,21.43
2018-03-02T16:29:03.402Z,21.10
2018-03-02T16:31:31.291Z,21.20
2018-03-02T16:33:59.242Z,21.33
2018-03-02T16:36:27.152Z,22.00
2018-03-02T16:38:55.029Z,20.80
2018-03-02T16:41:25.501Z,20.37
2018-03-02T16:43:55.515Z,20.97
2018-03-02T16:46:23.385Z,19.93
2018-03-02T16:48:59.392Z,20.27
2018-03-02T16:51:28.033Z,19.67
2018-03-02T16:53:55.898Z,18.57
2018-03-02T16:56:28.257Z,20.57
2018-03-02T16:58:56.273Z,18.80
2018-03-02T17:01:23.870Z,20.13
2018-03-02T17:03:52.640Z,19.23
2018-03-02T17:06:20.431Z,19.67
2018-03-02T17:08:49.918Z,19.90
2018-03-02T17:11:17.929Z,19.07
2018-03-02T17:13:54.292Z,19.57
2018-03-02T17:16:22.548Z,18.70
2018-03-02T17:18:50.845Z,17.87
2018-03-02T17:21:18.837Z,19.13
2018-03-02T17:23:46.874Z,19.40
2018-03-02T17:26:14.817Z,20.30
2018-03-02T17:28:43.378Z,19.23
2018-03-02T17:31:11.351Z,19.30
2018-03-02T17:33:44.021Z,19.27
2018-03-02T17:36:12.300Z,17.80
2018-03-02T17:38:41.447Z,18.97
2018-03-02T17:41:12.176Z,18.67
2018-03-02T17:43:39.917Z,18.37
2018-03-02T17:46:07.501Z,18.50
2018-03-02T17:48:35.224Z,19.60
2018-03-02T17:51:07.464Z,18.30
2018-03-02T17:53:35.102Z,20.13
2018-03-02T17:56:04.184Z,18.57
2018-03-02T17:58:32.514Z,19.47
2018-03-02T18:01:04.748Z,17.60
2018-03-02T18:03:36.132Z,19.07
2018-03-02T18:06:12.396Z,19.60
2018-03-02T18:08:43.854Z,19.47
2018-03-02T18:11:15.466Z,19.20
2018-03-02T18:13:50.185Z,18.77
2018-03-02T18:18:57.701Z,19.00
2018-03-02T18:21:25.611Z,19.17
2018-03-02T18:24:01.901Z,19.13
2018-03-02T18:26:31.971Z,19.53
2018-03-02T18:29:01.659Z,19.10
2018-03-02T18:31:30.816Z,20.80
2018-03-02T18:34:03.991Z,20.63
2018-03-02T18:36:32.470Z,19.33
2018-03-02T18:39:00.488Z,20.63
2018-03-02T18:41:30.614Z,19.23
2018-03-02T18:43:58.842Z,19.80
2018-03-02T18:46:26.429Z,20.50
2018-03-02T18:48:54.326Z,18.37
2018-03-02T18:51:22.503Z,20.13
2018-03-02T18:53:50.112Z,21.33
2018-03-02T18:56:17.685Z,19.40
2018-03-02T18:58:45.604Z,20.50
2018-03-02T19:01:13.525Z,20.80
2018-03-02T19:03:41.714Z,20.40
2018-03-02T19:06:09.272Z,21.17
2018-03-02T19:08:37.119Z,20.37
2018-03-02T19:11:04.743Z,19.87
2018-03-02T19:13:32.309Z,22.60
2018-03-02T19:15:59.849Z,20.77
2018-03-02T19:18:27.419Z,20.63
2018-03-02T19:20:54.987Z,21.50
2018-03-02T19:23:22.652Z,20.97
2018-03-02T19:25:50.282Z,22.90
2018-03-02T19:28:17.839Z,21.90
2018-03-02T19:30:45.367Z,22.37
2018-03-02T19:33:12.966Z,22.73
2018-03-02T19:35:40.614Z,21.90
2018-03-02T19:38:08.183Z,22.67
2018-03-02T19:40:35.869Z,22.93
2018-03-02T19:43:03.420Z,22.27
2018-03-02T19:45:30.956Z,21.60
2018-03-02T19:47:58.622Z,23.00
2018-03-02T19:50:26.206Z,23.17
2018-03-02T19:52:53.755Z,20.97
2018-03-02T19:55:21.700Z,21.53
2018-03-02T19:57:49.255Z,22.87
2018-03-02T20:00:16.868Z,22.60
2018-03-02T20:02:44.489Z,21.90
2018-03-02T20:05:12.025Z,23.13
2018-03-02T20:07:41.567Z,21.10
2018-03-02T20:10:10.034Z,22.73
2018-03-02T20:12:37.583Z,23.83
2018-03-02T20:15:05.218Z,22.80
2018-03-02T20:17:32.913Z,26.70
2018-03-02T20:20:00.482Z,22.53
2018-03-02T20:22:28.191Z,23.97
2018-03-02T20:24:56.647Z,24.13
2018-03-02T20:27:24.274Z,24.20
2018-03-02T20:29:51.855Z,22.70
2018-03-02T20:32:19.506Z,23.53
2018-03-02T20:34:47.390Z,24.80
2018-03-02T20:37:15.126Z,24.17
2018-03-02T20:39:42.774Z,25.00
2018-03-02T20:42:14.050Z,24.37
2018-03-02T20:44:42.787Z,24.00
2018-03-02T20:47:12.014Z,25.80
2018-03-02T20:49:42.859Z,25.57
2018-03-02T20:52:11.376Z,23.67
2018-03-02T20:54:40.477Z,26.03
2018-03-02T20:57:08.724Z,25.50
2018-03-02T20:59:36.444Z,24.80
2018-03-02T21:02:06.260Z,23.10
2018-03-02T21:04:34.167Z,25.47
2018-03-02T21:07:02.302Z,24.90
2018-03-02T21:09:30.470Z,25.53
2018-03-02T21:11:58.399Z,24.93
2018-03-02T21:14:25.975Z,24.90
2018-03-02T21:16:53.631Z,24.90
2018-03-02T21:19:21.216Z,24.37
2018-03-02T21:21:48.782Z,23.93
2018-03-02T21:24:16.314Z,24.00
2018-03-02T21:26:43.838Z,24.90
2018-03-02T21:29:11.440Z,23.87
2018-03-02T21:31:39.388Z,24.97
2018-03-02T21:34:07.153Z,24.87
2018-03-02T21:36:34.854Z,24.20
2018-03-02T21:39:02.382Z,26.37
2018-03-02T21:41:30.017Z,24.37
2018-03-02T21:43:59.034Z,25.43
2018-03-02T21:46:27.952Z,22.93
2018-03-02T21:48:55.793Z,24.63
2018-03-02T21:51:23.386Z,22.47
2018-03-02T21:53:50.972Z,22.67
2018-03-02T21:56:18.580Z,23.70
2018-03-02T21:58:46.569Z,23.40
2018-03-02T22:01:14.490Z,22.43
2018-03-02T22:03:42.198Z,24.87
2018-03-02T22:06:10.433Z,24.00
2018-03-02T22:08:38.088Z,23.60
2018-03-02T22:11:05.623Z,24.43
2018-03-02T22:13:33.665Z,23.23
2018-03-02T22:16:01.261Z,23.70
2018-03-02T22:18:28.800Z,23.30
2018-03-02T22:20:56.436Z,23.40
2018-03-02T22:23:24.212Z,23.23
2018-03-02T22:25:51.767Z,23.43
2018-03-02T22:28:19.346Z,23.13
2018-03-02T22:30:47.397Z,23.57
2018-03-02T22:33:15.480Z,22.93
2018-03-02T22:35:43.761Z,22.37
2018-03-02T22:38:12.920Z,23.60
2018-03-02T22:40:40.861Z,24.63
2018-03-02T22:43:08.425Z,24.33
2018-03-02T22:45:36.254Z,23.87
2018-03-02T22:48:03.797Z,23.23
2018-03-02T22:50:31.400Z,24.50
2018-03-02T22:52:59.089Z,23.10
2018-03-02T22:55:26.728Z,24.30
2018-03-02T22:57:54.365Z,23.03
2018-03-02T23:00:21.899Z,23.50
2018-03-02T23:02:49.519Z,25.53
2018-03-02T23:05:17.182Z,24.57
2018-03-02T23:07:44.835Z,23.07
2018-03-02T23:10:12.680Z,24.83
2018-03-02T23:12:40.250Z,24.13
2018-03-02T23:15:07.889Z,25.73
2018-03-02T23:17:35.868Z,23.30
2018-03-02T23:20:03.450Z,24.70
2018-03-02T23:22:31.054Z,24.93
2018-03-02T23:24:58.760Z,24.57
2018-03-02T23:27:27.000Z,25.17
2018-03-02T23:29:54.626Z,24.00
2018-03-02T23:32:22.465Z,23.63
2018-03-02T23:34:50.050Z,24.00
2018-03-02T23:37:17.606Z,24.57
2018-03-02T23:39:45.144Z,24.80
2018-03-02T23:42:13.322Z,25.73
2018-03-02T23:44:40.861Z,24.77
2018-03-02T23:47:08.430Z,24.57
2018-03-02T23:49:35.977Z,24.70
2018-03-02T23:52:03.523Z,25.17
2018-03-02T23:54:31.332Z,23.50
2018-03-02T23:56:58.947Z,22.80
2018-03-02T23:59:27.216Z,24.20
